sensor_id;sensor_type;location;lat;lon;timestamp;P1;durP1;ratioP1;P2;durP2;ratioP2
4766;SDS011;2397;53.576;9.746;2023-07-29T00:00:09;6.83;;;4.03;;
4766;SDS011;2397;53.576;9.746;2023-07-29T00:02:40;4.07;;;3.67;;
4766;SDS011;2397;53.576;9.746;2023-07-29T00:05:07;5.00;;;4.60;;
4766;SDS011;2397;53.576;9.746;2023-07-29T00:07:34;4.10;;;3.80;;
4766;SDS011;2397;53.576;9.746;2023-07-29T00:10:00;3.73;;;3.50;;
4766;SDS011;2397;53.576;9.746;2023-07-29T00:12:27;3.63;;;3.33;;
4766;SDS011;2397;53.576;9.746;2023-07-29T00:14:53;3.40;;;3.20;;
4766;SDS011;2397;53.576;9.746;2023-07-29T00:17:20;4.10;;;3.80;;
4766;SDS011;2397;53.576;9.746;2023-07-29T00:19:47;4.10;;;3.80;;
4766;SDS011;2397;53.576;9.746;2023-07-29T00:22:13;4.00;;;3.70;;
4766;SDS011;2397;53.576;9.746;2023-07-29T00:24:40;4.13;;;3.83;;
4766;SDS011;2397;53.576;9.746;2023-07-29T00:27:07;3.80;;;3.50;;
4766;SDS011;2397;53.576;9.746;2023-07-29T00:29:33;3.63;;;3.37;;
4766;SDS011;2397;53.576;9.746;2023-07-29T00:32:00;3.43;;;3.10;;
4766;SDS011;2397;53.576;9.746;2023-07-29T00:34:26;3.27;;;3.07;;
4766;SDS011;2397;53.576;9.746;2023-07-29T00:36:53;3.43;;;3.23;;
4766;SDS011;2397;53.576;9.746;2023-07-29T00:39:20;4.30;;;3.87;;
4766;SDS011;2397;53.576;9.746;2023-07-29T00:41:46;6.10;;;3.43;;
4766;SDS011;2397;53.576;9.746;2023-07-29T00:44:13;3.70;;;3.40;;
4766;SDS011;2397;53.576;9.746;2023-07-29T00:46:40;4.00;;;3.70;;
4766;SDS011;2397;53.576;9.746;2023-07-29T00:49:07;3.57;;;3.20;;
4766;SDS011;2397;53.576;9.746;2023-07-29T00:51:34;4.30;;;3.90;;
4766;SDS011;2397;53.576;9.746;2023-07-29T00:54:00;3.83;;;3.53;;
4766;SDS011;2397;53.576;9.746;2023-07-29T00:56:27;5.03;;;3.83;;
4766;SDS011;2397;53.576;9.746;2023-07-29T00:58:54;3.67;;;3.47;;
4766;SDS011;2397;53.576;9.746;2023-07-29T01:01:26;4.03;;;3.73;;
4766;SDS011;2397;53.576;9.746;2023-07-29T01:03:53;4.37;;;4.07;;
4766;SDS011;2397;53.576;9.746;2023-07-29T01:09:08;4.10;;;3.70;;
4766;SDS011;2397;53.576;9.746;2023-07-29T01:11:48;4.77;;;4.20;;
4766;SDS011;2397;53.576;9.746;2023-07-29T01:17:08;3.60;;;3.40;;
4766;SDS011;2397;53.576;9.746;2023-07-29T01:22:42;4.67;;;3.93;;
4766;SDS011;2397;53.576;9.746;2023-07-29T01:25:10;4.23;;;3.83;;
4766;SDS011;2397;53.576;9.746;2023-07-29T01:27:37;3.93;;;3.63;;
4766;SDS011;2397;53.576;9.746;2023-07-29T01:30:04;5.70;;;3.77;;
4766;SDS011;2397;53.576;9.746;2023-07-29T01:32:40;4.80;;;4.30;;
4766;SDS011;2397;53.576;9.746;2023-07-29T01:35:17;4.40;;;4.00;;
4766;SDS011;2397;53.576;9.746;2023-07-29T01:37:51;4.20;;;3.90;;
4766;SDS011;2397;53.576;9.746;2023-07-29T01:40:22;3.83;;;3.53;;
4766;SDS011;2397;53.576;9.746;2023-07-29T01:42:52;3.90;;;3.60;;
4766;SDS011;2397;53.576;9.746;2023-07-29T01:45:21;4.57;;;4.20;;
4766;SDS011;2397;53.576;9.746;2023-07-29T01:47:50;4.17;;;3.87;;
4766;SDS011;2397;53.576;9.746;2023-07-29T01:50:17;5.83;;;4.17;;
4766;SDS011;2397;53.576;9.746;2023-07-29T01:52:43;4.73;;;4.07;;
4766;SDS011;2397;53.576;9.746;2023-07-29T01:55:10;6.00;;;5.40;;
4766;SDS011;2397;53.576;9.746;2023-07-29T01:57:36;5.67;;;5.27;;
4766;SDS011;2397;53.576;9.746;2023-07-29T02:00:04;10.63;;;5.23;;
4766;SDS011;2397;53.576;9.746;2023-07-29T02:02:39;5.10;;;4.70;;
4766;SDS011;2397;53.576;9.746;2023-07-29T02:05:06;5.40;;;5.00;;
4766;SDS011;2397;53.576;9.746;2023-07-29T02:07:32;5.90;;;5.50;;
4766;SDS011;2397;53.576;9.746;2023-07-29T02:09:59;6.13;;;5.57;;
4766;SDS011;2397;53.576;9.746;2023-07-29T02:12:26;8.40;;;6.23;;
4766;SDS011;2397;53.576;9.746;2023-07-29T02:14:53;6.17;;;5.60;;
4766;SDS011;2397;53.576;9.746;2023-07-29T02:17:19;8.10;;;7.30;;
4766;SDS011;2397;53.576;9.746;2023-07-29T02:19:46;6.80;;;6.30;;
4766;SDS011;2397;53.576;9.746;2023-07-29T02:22:13;8.13;;;7.50;;
4766;SDS011;2397;53.576;9.746;2023-07-29T02:24:40;8.93;;;8.03;;
4766;SDS011;2397;53.576;9.746;2023-07-29T02:27:07;7.50;;;6.90;;
4766;SDS011;2397;53.576;9.746;2023-07-29T02:29:34;8.63;;;7.83;;
4766;SDS011;2397;53.576;9.746;2023-07-29T02:32:00;9.00;;;8.20;;
4766;SDS011;2397;53.576;9.746;2023-07-29T02:34:27;8.27;;;7.57;;
4766;SDS011;2397;53.576;9.746;2023-07-29T02:36:54;9.03;;;8.23;;
4766;SDS011;2397;53.576;9.746;2023-07-29T02:39:21;8.83;;;8.03;;
4766;SDS011;2397;53.576;9.746;2023-07-29T02:41:48;9.10;;;8.20;;
4766;SDS011;2397;53.576;9.746;2023-07-29T02:44:15;9.03;;;8.07;;
4766;SDS011;2397;53.576;9.746;2023-07-29T02:46:41;8.93;;;8.13;;
4766;SDS011;2397;53.576;9.746;2023-07-29T02:49:08;9.33;;;8.43;;
4766;SDS011;2397;53.576;9.746;2023-07-29T02:51:35;10.07;;;9.07;;
4766;SDS011;2397;53.576;9.746;2023-07-29T02:54:01;9.70;;;8.80;;
4766;SDS011;2397;53.576;9.746;2023-07-29T02:56:28;12.80;;;9.07;;
4766;SDS011;2397;53.576;9.746;2023-07-29T02:58:56;9.53;;;8.60;;
4766;SDS011;2397;53.576;9.746;2023-07-29T03:01:23;9.10;;;8.20;;
4766;SDS011;2397;53.576;9.746;2023-07-29T03:03:51;9.57;;;8.33;;
4766;SDS011;2397;53.576;9.746;2023-07-29T03:06:18;9.83;;;8.50;;
4766;SDS011;2397;53.576;9.746;2023-07-29T03:08:44;9.40;;;8.60;;
4766;SDS011;2397;53.576;9.746;2023-07-29T03:11:15;14.00;;;9.53;;
4766;SDS011;2397;53.576;9.746;2023-07-29T03:13:42;10.10;;;9.17;;
4766;SDS011;2397;53.576;9.746;2023-07-29T03:16:13;11.03;;;10.00;;
4766;SDS011;2397;53.576;9.746;2023-07-29T03:18:47;13.07;;;10.53;;
4766;SDS011;2397;53.576;9.746;2023-07-29T03:21:14;16.23;;;10.27;;
4766;SDS011;2397;53.576;9.746;2023-07-29T03:23:41;10.70;;;9.40;;
4766;SDS011;2397;53.576;9.746;2023-07-29T03:26:08;12.20;;;10.37;;
4766;SDS011;2397;53.576;9.746;2023-07-29T03:28:39;13.03;;;11.83;;
4766;SDS011;2397;53.576;9.746;2023-07-29T03:31:07;12.93;;;11.63;;
4766;SDS011;2397;53.576;9.746;2023-07-29T03:33:34;11.50;;;10.30;;
4766;SDS011;2397;53.576;9.746;2023-07-29T03:36:01;12.03;;;10.80;;
4766;SDS011;2397;53.576;9.746;2023-07-29T03:38:28;10.90;;;9.80;;
4766;SDS011;2397;53.576;9.746;2023-07-29T03:40:55;13.00;;;11.63;;
4766;SDS011;2397;53.576;9.746;2023-07-29T03:43:23;12.50;;;11.20;;
4766;SDS011;2397;53.576;9.746;2023-07-29T03:45:49;12.53;;;11.10;;
4766;SDS011;2397;53.576;9.746;2023-07-29T03:48:16;12.20;;;11.00;;
4766;SDS011;2397;53.576;9.746;2023-07-29T03:50:42;19.40;;;12.10;;
4766;SDS011;2397;53.576;9.746;2023-07-29T03:53:09;15.27;;;12.70;;
4766;SDS011;2397;53.576;9.746;2023-07-29T03:55:36;13.20;;;11.90;;
4766;SDS011;2397;53.576;9.746;2023-07-29T03:58:03;14.57;;;13.07;;
4766;SDS011;2397;53.576;9.746;2023-07-29T04:00:29;16.30;;;12.97;;
4766;SDS011;2397;53.576;9.746;2023-07-29T04:02:56;16.77;;;14.97;;
4766;SDS011;2397;53.576;9.746;2023-07-29T04:05:23;23.20;;;14.80;;
4766;SDS011;2397;53.576;9.746;2023-07-29T04:07:49;17.23;;;15.23;;
4766;SDS011;2397;53.576;9.746;2023-07-29T04:10:16;17.63;;;15.63;;
4766;SDS011;2397;53.576;9.746;2023-07-29T04:12:43;18.03;;;15.50;;
4766;SDS011;2397;53.576;9.746;2023-07-29T04:15:10;21.23;;;16.83;;
4766;SDS011;2397;53.576;9.746;2023-07-29T04:17:36;21.37;;;17.57;;
4766;SDS011;2397;53.576;9.746;2023-07-29T04:20:03;23.77;;;17.20;;
4766;SDS011;2397;53.576;9.746;2023-07-29T04:22:33;22.73;;;16.70;;
4766;SDS011;2397;53.576;9.746;2023-07-29T04:24:59;27.40;;;18.33;;
4766;SDS011;2397;53.576;9.746;2023-07-29T04:27:26;20.83;;;17.33;;
4766;SDS011;2397;53.576;9.746;2023-07-29T04:29:53;25.90;;;17.40;;
4766;SDS011;2397;53.576;9.746;2023-07-29T04:32:19;33.97;;;18.13;;
4766;SDS011;2397;53.576;9.746;2023-07-29T04:34:46;33.03;;;20.87;;
4766;SDS011;2397;53.576;9.746;2023-07-29T04:37:12;30.57;;;20.00;;
4766;SDS011;2397;53.576;9.746;2023-07-29T04:39:39;25.20;;;20.03;;
4766;SDS011;2397;53.576;9.746;2023-07-29T04:42:05;27.10;;;19.90;;
4766;SDS011;2397;53.576;9.746;2023-07-29T04:44:34;32.37;;;20.40;;
4766;SDS011;2397;53.576;9.746;2023-07-29T04:47:01;23.40;;;19.30;;
4766;SDS011;2397;53.576;9.746;2023-07-29T04:49:28;28.00;;;20.37;;
4766;SDS011;2397;53.576;9.746;2023-07-29T04:51:54;25.60;;;19.67;;
4766;SDS011;2397;53.576;9.746;2023-07-29T04:54:21;27.70;;;21.40;;
4766;SDS011;2397;53.576;9.746;2023-07-29T04:56:48;29.30;;;21.77;;
4766;SDS011;2397;53.576;9.746;2023-07-29T04:59:16;27.90;;;20.47;;
4766;SDS011;2397;53.576;9.746;2023-07-29T05:01:43;25.00;;;20.70;;
4766;SDS011;2397;53.576;9.746;2023-07-29T05:04:10;25.97;;;21.00;;
4766;SDS011;2397;53.576;9.746;2023-07-29T05:06:36;28.77;;;20.97;;
4766;SDS011;2397;53.576;9.746;2023-07-29T05:09:13;27.47;;;20.07;;
4766;SDS011;2397;53.576;9.746;2023-07-29T05:11:41;31.73;;;20.50;;
4766;SDS011;2397;53.576;9.746;2023-07-29T05:14:08;29.10;;;20.50;;
4766;SDS011;2397;53.576;9.746;2023-07-29T05:16:36;26.63;;;20.60;;
4766;SDS011;2397;53.576;9.746;2023-07-29T05:19:03;31.20;;;21.90;;
4766;SDS011;2397;53.576;9.746;2023-07-29T05:21:30;25.43;;;21.37;;
4766;SDS011;2397;53.576;9.746;2023-07-29T05:23:57;28.70;;;22.03;;
4766;SDS011;2397;53.576;9.746;2023-07-29T05:26:24;32.17;;;21.40;;
4766;SDS011;2397;53.576;9.746;2023-07-29T05:28:51;32.43;;;23.70;;
4766;SDS011;2397;53.576;9.746;2023-07-29T05:31:17;29.27;;;21.87;;
4766;SDS011;2397;53.576;9.746;2023-07-29T05:33:44;30.70;;;22.40;;
4766;SDS011;2397;53.576;9.746;2023-07-29T05:36:10;29.33;;;21.60;;
4766;SDS011;2397;53.576;9.746;2023-07-29T05:38:37;26.40;;;19.90;;
4766;SDS011;2397;53.576;9.746;2023-07-29T05:41:04;28.73;;;22.00;;
4766;SDS011;2397;53.576;9.746;2023-07-29T05:43:31;24.90;;;20.83;;
4766;SDS011;2397;53.576;9.746;2023-07-29T05:45:57;25.67;;;20.90;;
4766;SDS011;2397;53.576;9.746;2023-07-29T05:48:24;29.10;;;22.23;;
4766;SDS011;2397;53.576;9.746;2023-07-29T05:50:50;25.00;;;21.50;;
4766;SDS011;2397;53.576;9.746;2023-07-29T05:53:17;27.10;;;19.30;;
4766;SDS011;2397;53.576;9.746;2023-07-29T05:55:44;27.93;;;21.20;;
4766;SDS011;2397;53.576;9.746;2023-07-29T05:58:10;27.60;;;20.97;;
4766;SDS011;2397;53.576;9.746;2023-07-29T06:00:37;27.33;;;21.77;;
4766;SDS011;2397;53.576;9.746;2023-07-29T06:03:04;27.60;;;22.50;;
4766;SDS011;2397;53.576;9.746;2023-07-29T06:05:31;26.93;;;20.90;;
4766;SDS011;2397;53.576;9.746;2023-07-29T06:07:58;27.27;;;22.77;;
4766;SDS011;2397;53.576;9.746;2023-07-29T06:10:25;28.63;;;21.47;;
4766;SDS011;2397;53.576;9.746;2023-07-29T06:12:51;29.90;;;22.30;;
4766;SDS011;2397;53.576;9.746;2023-07-29T06:15:18;34.07;;;22.07;;
4766;SDS011;2397;53.576;9.746;2023-07-29T06:17:48;30.80;;;20.30;;
4766;SDS011;2397;53.576;9.746;2023-07-29T06:20:15;30.00;;;23.30;;
4766;SDS011;2397;53.576;9.746;2023-07-29T06:22:42;24.70;;;21.23;;
4766;SDS011;2397;53.576;9.746;2023-07-29T06:25:09;30.77;;;24.47;;
4766;SDS011;2397;53.576;9.746;2023-07-29T06:27:37;29.73;;;22.47;;
4766;SDS011;2397;53.576;9.746;2023-07-29T06:30:04;28.53;;;24.23;;
4766;SDS011;2397;53.576;9.746;2023-07-29T06:32:31;28.87;;;23.87;;
4766;SDS011;2397;53.576;9.746;2023-07-29T06:34:57;32.83;;;24.57;;
4766;SDS011;2397;53.576;9.746;2023-07-29T06:37:24;31.20;;;24.17;;
4766;SDS011;2397;53.576;9.746;2023-07-29T06:39:51;33.47;;;26.10;;
4766;SDS011;2397;53.576;9.746;2023-07-29T06:42:18;30.90;;;25.07;;
4766;SDS011;2397;53.576;9.746;2023-07-29T06:44:44;30.83;;;24.07;;
4766;SDS011;2397;53.576;9.746;2023-07-29T06:47:12;33.30;;;24.67;;
4766;SDS011;2397;53.576;9.746;2023-07-29T06:49:39;33.53;;;24.60;;
4766;SDS011;2397;53.576;9.746;2023-07-29T06:52:06;31.83;;;25.40;;
4766;SDS011;2397;53.576;9.746;2023-07-29T06:54:32;33.80;;;25.53;;
4766;SDS011;2397;53.576;9.746;2023-07-29T06:56:59;35.20;;;25.83;;
4766;SDS011;2397;53.576;9.746;2023-07-29T06:59:25;31.90;;;25.33;;
4766;SDS011;2397;53.576;9.746;2023-07-29T07:01:52;29.60;;;24.07;;
4766;SDS011;2397;53.576;9.746;2023-07-29T07:04:19;31.23;;;24.77;;
4766;SDS011;2397;53.576;9.746;2023-07-29T07:06:45;31.87;;;25.70;;
4766;SDS011;2397;53.576;9.746;2023-07-29T07:09:12;34.00;;;25.37;;
4766;SDS011;2397;53.576;9.746;2023-07-29T07:11:39;34.43;;;24.87;;
4766;SDS011;2397;53.576;9.746;2023-07-29T07:14:06;26.17;;;22.20;;
4766;SDS011;2397;53.576;9.746;2023-07-29T07:16:32;27.87;;;21.87;;
4766;SDS011;2397;53.576;9.746;2023-07-29T07:18:59;29.13;;;22.70;;
4766;SDS011;2397;53.576;9.746;2023-07-29T07:21:25;22.90;;;19.10;;
4766;SDS011;2397;53.576;9.746;2023-07-29T07:23:52;25.20;;;22.43;;
4766;SDS011;2397;53.576;9.746;2023-07-29T07:26:19;27.70;;;23.07;;
4766;SDS011;2397;53.576;9.746;2023-07-29T07:28:45;23.40;;;20.67;;
4766;SDS011;2397;53.576;9.746;2023-07-29T07:31:12;24.20;;;19.73;;
4766;SDS011;2397;53.576;9.746;2023-07-29T07:33:39;25.33;;;19.47;;
4766;SDS011;2397;53.576;9.746;2023-07-29T07:36:05;22.93;;;18.90;;
4766;SDS011;2397;53.576;9.746;2023-07-29T07:38:31;22.70;;;18.10;;
4766;SDS011;2397;53.576;9.746;2023-07-29T07:40:58;21.67;;;17.70;;
4766;SDS011;2397;53.576;9.746;2023-07-29T07:43:25;30.13;;;18.10;;
4766;SDS011;2397;53.576;9.746;2023-07-29T07:45:51;19.27;;;17.20;;
4766;SDS011;2397;53.576;9.746;2023-07-29T07:48:25;20.43;;;16.17;;
4766;SDS011;2397;53.576;9.746;2023-07-29T07:50:52;19.33;;;16.13;;
4766;SDS011;2397;53.576;9.746;2023-07-29T07:53:19;20.40;;;16.63;;
4766;SDS011;2397;53.576;9.746;2023-07-29T07:55:46;21.13;;;17.80;;
4766;SDS011;2397;53.576;9.746;2023-07-29T07:58:13;22.63;;;17.57;;
4766;SDS011;2397;53.576;9.746;2023-07-29T08:00:39;20.13;;;16.90;;
4766;SDS011;2397;53.576;9.746;2023-07-29T08:03:06;19.53;;;16.47;;
4766;SDS011;2397;53.576;9.746;2023-07-29T08:05:33;24.30;;;16.30;;
4766;SDS011;2397;53.576;9.746;2023-07-29T08:07:59;22.30;;;16.60;;
4766;SDS011;2397;53.576;9.746;2023-07-29T08:10:26;25.30;;;18.10;;
4766;SDS011;2397;53.576;9.746;2023-07-29T08:12:52;20.40;;;17.67;;
4766;SDS011;2397;53.576;9.746;2023-07-29T08:15:19;20.50;;;18.30;;
4766;SDS011;2397;53.576;9.746;2023-07-29T08:17:45;24.50;;;19.00;;
4766;SDS011;2397;53.576;9.746;2023-07-29T08:20:12;28.37;;;19.37;;
4766;SDS011;2397;53.576;9.746;2023-07-29T08:22:39;24.67;;;19.77;;
4766;SDS011;2397;53.576;9.746;2023-07-29T08:25:05;27.90;;;18.07;;
4766;SDS011;2397;53.576;9.746;2023-07-29T08:27:33;25.40;;;21.10;;
4766;SDS011;2397;53.576;9.746;2023-07-29T08:30:00;23.93;;;18.40;;
4766;SDS011;2397;53.576;9.746;2023-07-29T08:32:27;23.90;;;18.97;;
4766;SDS011;2397;53.576;9.746;2023-07-29T08:34:54;24.63;;;19.23;;
4766;SDS011;2397;53.576;9.746;2023-07-29T08:37:20;28.30;;;20.63;;
4766;SDS011;2397;53.576;9.746;2023-07-29T08:39:47;30.00;;;21.33;;
4766;SDS011;2397;53.576;9.746;2023-07-29T08:42:13;26.60;;;19.70;;
4766;SDS011;2397;53.576;9.746;2023-07-29T08:44:45;27.10;;;20.67;;
4766;SDS011;2397;53.576;9.746;2023-07-29T08:47:15;28.77;;;22.80;;
4766;SDS011;2397;53.576;9.746;2023-07-29T08:49:43;27.60;;;20.40;;
4766;SDS011;2397;53.576;9.746;2023-07-29T08:52:11;29.63;;;21.37;;
4766;SDS011;2397;53.576;9.746;2023-07-29T08:54:40;25.70;;;20.00;;
4766;SDS011;2397;53.576;9.746;2023-07-29T08:57:06;25.60;;;21.17;;
4766;SDS011;2397;53.576;9.746;2023-07-29T08:59:33;23.73;;;20.17;;
4766;SDS011;2397;53.576;9.746;2023-07-29T09:01:59;22.27;;;18.77;;
4766;SDS011;2397;53.576;9.746;2023-07-29T09:04:26;20.83;;;17.43;;
4766;SDS011;2397;53.576;9.746;2023-07-29T09:06:55;22.83;;;19.67;;
4766;SDS011;2397;53.576;9.746;2023-07-29T09:09:22;21.30;;;18.57;;
4766;SDS011;2397;53.576;9.746;2023-07-29T09:11:49;22.20;;;19.00;;
4766;SDS011;2397;53.576;9.746;2023-07-29T09:14:16;22.63;;;18.20;;
4766;SDS011;2397;53.576;9.746;2023-07-29T09:16:43;28.30;;;17.70;;
4766;SDS011;2397;53.576;9.746;2023-07-29T09:19:10;22.83;;;16.90;;
4766;SDS011;2397;53.576;9.746;2023-07-29T09:21:40;18.30;;;16.23;;
4766;SDS011;2397;53.576;9.746;2023-07-29T09:24:08;20.77;;;15.70;;
4766;SDS011;2397;53.576;9.746;2023-07-29T09:26:35;20.47;;;16.13;;
4766;SDS011;2397;53.576;9.746;2023-07-29T09:29:03;18.37;;;15.63;;
4766;SDS011;2397;53.576;9.746;2023-07-29T09:31:29;15.37;;;13.77;;
4766;SDS011;2397;53.576;9.746;2023-07-29T09:34:00;15.40;;;13.20;;
4766;SDS011;2397;53.576;9.746;2023-07-29T09:36:30;14.13;;;11.50;;
4766;SDS011;2397;53.576;9.746;2023-07-29T09:38:58;14.93;;;11.33;;
4766;SDS011;2397;53.576;9.746;2023-07-29T09:41:25;11.13;;;10.03;;
4766;SDS011;2397;53.576;9.746;2023-07-29T09:43:57;11.97;;;10.73;;
4766;SDS011;2397;53.576;9.746;2023-07-29T09:46:25;10.97;;;9.77;;
4766;SDS011;2397;53.576;9.746;2023-07-29T09:48:59;12.70;;;9.90;;
4766;SDS011;2397;53.576;9.746;2023-07-29T09:51:26;11.80;;;10.60;;
4766;SDS011;2397;53.576;9.746;2023-07-29T09:53:52;11.03;;;10.00;;
4766;SDS011;2397;53.576;9.746;2023-07-29T09:56:23;9.70;;;8.70;;
4766;SDS011;2397;53.576;9.746;2023-07-29T09:58:52;12.13;;;10.90;;
4766;SDS011;2397;53.576;9.746;2023-07-29T10:01:18;10.73;;;9.53;;
4766;SDS011;2397;53.576;9.746;2023-07-29T10:03:45;10.23;;;9.23;;
4766;SDS011;2397;53.576;9.746;2023-07-29T10:06:13;9.80;;;8.90;;
4766;SDS011;2397;53.576;9.746;2023-07-29T10:08:40;7.70;;;7.00;;
4766;SDS011;2397;53.576;9.746;2023-07-29T10:11:09;8.63;;;7.87;;
4766;SDS011;2397;53.576;9.746;2023-07-29T10:13:37;8.07;;;7.37;;
4766;SDS011;2397;53.576;9.746;2023-07-29T10:16:04;6.30;;;5.70;;
4766;SDS011;2397;53.576;9.746;2023-07-29T10:18:32;5.53;;;5.13;;
4766;SDS011;2397;53.576;9.746;2023-07-29T10:21:00;4.27;;;3.97;;
4766;SDS011;2397;53.576;9.746;2023-07-29T10:23:28;4.30;;;4.00;;
4766;SDS011;2397;53.576;9.746;2023-07-29T10:26:03;4.07;;;3.67;;
4766;SDS011;2397;53.576;9.746;2023-07-29T10:28:32;3.20;;;3.00;;
4766;SDS011;2397;53.576;9.746;2023-07-29T10:30:59;3.17;;;2.97;;
4766;SDS011;2397;53.576;9.746;2023-07-29T10:33:26;2.70;;;2.50;;
4766;SDS011;2397;53.576;9.746;2023-07-29T10:35:53;2.87;;;2.67;;
4766;SDS011;2397;53.576;9.746;2023-07-29T10:38:21;8.53;;;3.27;;
4766;SDS011;2397;53.576;9.746;2023-07-29T10:40:52;4.60;;;3.17;;
4766;SDS011;2397;53.576;9.746;2023-07-29T10:43:27;3.97;;;2.70;;
4766;SDS011;2397;53.576;9.746;2023-07-29T10:46:14;3.20;;;3.00;;
4766;SDS011;2397;53.576;9.746;2023-07-29T10:48:44;2.93;;;2.63;;
4766;SDS011;2397;53.576;9.746;2023-07-29T10:51:24;3.23;;;2.93;;
4766;SDS011;2397;53.576;9.746;2023-07-29T10:53:52;3.30;;;3.10;;
4766;SDS011;2397;53.576;9.746;2023-07-29T10:56:29;2.80;;;2.60;;
4766;SDS011;2397;53.576;9.746;2023-07-29T11:02:03;3.30;;;3.00;;
4766;SDS011;2397;53.576;9.746;2023-07-29T11:04:49;4.43;;;3.37;;
4766;SDS011;2397;53.576;9.746;2023-07-29T11:17:36;6.47;;;3.87;;
4766;SDS011;2397;53.576;9.746;2023-07-29T11:20:07;4.83;;;4.43;;
4766;SDS011;2397;53.576;9.746;2023-07-29T11:22:35;4.07;;;3.77;;
4766;SDS011;2397;53.576;9.746;2023-07-29T11:25:03;4.00;;;3.70;;
4766;SDS011;2397;53.576;9.746;2023-07-29T11:27:29;4.00;;;2.90;;
4766;SDS011;2397;53.576;9.746;2023-07-29T11:30:00;3.80;;;3.43;;
4766;SDS011;2397;53.576;9.746;2023-07-29T11:32:28;4.23;;;3.43;;
4766;SDS011;2397;53.576;9.746;2023-07-29T11:34:56;4.00;;;3.70;;
4766;SDS011;2397;53.576;9.746;2023-07-29T11:37:22;4.40;;;3.37;;
4766;SDS011;2397;53.576;9.746;2023-07-29T11:39:49;3.23;;;3.03;;
4766;SDS011;2397;53.576;9.746;2023-07-29T11:42:15;3.87;;;3.57;;
4766;SDS011;2397;53.576;9.746;2023-07-29T11:44:42;3.13;;;2.93;;
4766;SDS011;2397;53.576;9.746;2023-07-29T11:47:09;3.53;;;2.93;;
4766;SDS011;2397;53.576;9.746;2023-07-29T11:49:40;3.33;;;3.10;;
4766;SDS011;2397;53.576;9.746;2023-07-29T11:52:08;2.70;;;2.50;;
4766;SDS011;2397;53.576;9.746;2023-07-29T11:54:36;2.90;;;2.70;;
4766;SDS011;2397;53.576;9.746;2023-07-29T11:57:08;2.80;;;2.60;;
4766;SDS011;2397;53.576;9.746;2023-07-29T11:59:36;3.10;;;2.80;;
4766;SDS011;2397;53.576;9.746;2023-07-29T12:02:05;3.50;;;2.97;;
4766;SDS011;2397;53.576;9.746;2023-07-29T12:04:35;2.70;;;2.50;;
4766;SDS011;2397;53.576;9.746;2023-07-29T12:07:04;2.60;;;2.40;;
4766;SDS011;2397;53.576;9.746;2023-07-29T12:09:31;3.03;;;2.73;;
4766;SDS011;2397;53.576;9.746;2023-07-29T12:11:58;2.70;;;2.50;;
4766;SDS011;2397;53.576;9.746;2023-07-29T12:14:33;3.30;;;2.53;;
4766;SDS011;2397;53.576;9.746;2023-07-29T12:17:02;2.43;;;2.23;;
4766;SDS011;2397;53.576;9.746;2023-07-29T12:19:33;3.87;;;2.47;;
4766;SDS011;2397;53.576;9.746;2023-07-29T12:22:01;2.40;;;2.20;;
4766;SDS011;2397;53.576;9.746;2023-07-29T12:24:29;2.30;;;2.10;;
4766;SDS011;2397;53.576;9.746;2023-07-29T12:27:00;3.30;;;2.30;;
4766;SDS011;2397;53.576;9.746;2023-07-29T12:29:27;2.20;;;2.10;;
4766;SDS011;2397;53.576;9.746;2023-07-29T12:32:12;2.07;;;1.97;;
4766;SDS011;2397;53.576;9.746;2023-07-29T12:34:40;2.50;;;2.30;;
4766;SDS011;2397;53.576;9.746;2023-07-29T12:37:06;2.60;;;2.40;;
4766;SDS011;2397;53.576;9.746;2023-07-29T12:39:34;2.70;;;2.07;;
4766;SDS011;2397;53.576;9.746;2023-07-29T12:42:06;3.10;;;2.90;;
4766;SDS011;2397;53.576;9.746;2023-07-29T12:44:34;2.40;;;2.20;;
4766;SDS011;2397;53.576;9.746;2023-07-29T12:47:02;3.20;;;2.70;;
4766;SDS011;2397;53.576;9.746;2023-07-29T12:49:30;2.60;;;2.40;;
4766;SDS011;2397;53.576;9.746;2023-07-29T12:51:57;2.63;;;2.43;;
4766;SDS011;2397;53.576;9.746;2023-07-29T12:54:25;2.83;;;2.60;;
4766;SDS011;2397;53.576;9.746;2023-07-29T12:56:52;2.37;;;2.17;;
4766;SDS011;2397;53.576;9.746;2023-07-29T12:59:18;2.67;;;2.47;;
4766;SDS011;2397;53.576;9.746;2023-07-29T13:01:45;2.53;;;2.33;;
4766;SDS011;2397;53.576;9.746;2023-07-29T13:04:12;4.33;;;2.27;;
4766;SDS011;2397;53.576;9.746;2023-07-29T13:06:38;3.60;;;2.60;;
4766;SDS011;2397;53.576;9.746;2023-07-29T13:09:06;2.47;;;2.27;;
4766;SDS011;2397;53.576;9.746;2023-07-29T13:11:32;2.20;;;2.10;;
4766;SDS011;2397;53.576;9.746;2023-07-29T13:13:59;2.20;;;2.10;;
4766;SDS011;2397;53.576;9.746;2023-07-29T13:16:30;2.50;;;2.30;;
4766;SDS011;2397;53.576;9.746;2023-07-29T13:18:57;2.67;;;2.47;;
4766;SDS011;2397;53.576;9.746;2023-07-29T13:21:23;2.90;;;2.70;;
4766;SDS011;2397;53.576;9.746;2023-07-29T13:23:50;3.27;;;2.97;;
4766;SDS011;2397;53.576;9.746;2023-07-29T13:26:17;2.37;;;2.17;;
4766;SDS011;2397;53.576;9.746;2023-07-29T13:28:44;2.50;;;2.30;;
4766;SDS011;2397;53.576;9.746;2023-07-29T13:31:10;2.53;;;2.33;;
4766;SDS011;2397;53.576;9.746;2023-07-29T13:33:37;2.70;;;2.50;;
4766;SDS011;2397;53.576;9.746;2023-07-29T13:36:03;2.70;;;2.50;;
4766;SDS011;2397;53.576;9.746;2023-07-29T13:38:30;2.67;;;2.47;;
4766;SDS011;2397;53.576;9.746;2023-07-29T13:40:57;2.50;;;2.20;;
4766;SDS011;2397;53.576;9.746;2023-07-29T13:43:24;2.50;;;2.30;;
4766;SDS011;2397;53.576;9.746;2023-07-29T13:45:50;2.70;;;2.50;;
4766;SDS011;2397;53.576;9.746;2023-07-29T13:48:17;2.60;;;2.40;;
4766;SDS011;2397;53.576;9.746;2023-07-29T13:50:44;2.50;;;2.30;;
4766;SDS011;2397;53.576;9.746;2023-07-29T13:53:10;2.43;;;2.23;;
4766;SDS011;2397;53.576;9.746;2023-07-29T13:55:37;2.40;;;2.20;;
4766;SDS011;2397;53.576;9.746;2023-07-29T13:58:04;2.67;;;2.47;;
4766;SDS011;2397;53.576;9.746;2023-07-29T14:00:30;3.40;;;2.30;;
4766;SDS011;2397;53.576;9.746;2023-07-29T14:02:57;2.43;;;2.23;;
4766;SDS011;2397;53.576;9.746;2023-07-29T14:05:23;2.40;;;2.20;;
4766;SDS011;2397;53.576;9.746;2023-07-29T14:07:50;2.77;;;2.20;;
4766;SDS011;2397;53.576;9.746;2023-07-29T14:10:17;3.60;;;2.30;;
4766;SDS011;2397;53.576;9.746;2023-07-29T14:12:43;4.83;;;2.50;;
4766;SDS011;2397;53.576;9.746;2023-07-29T14:15:10;2.60;;;2.40;;
4766;SDS011;2397;53.576;9.746;2023-07-29T14:17:37;2.50;;;2.30;;
4766;SDS011;2397;53.576;9.746;2023-07-29T14:20:03;2.90;;;2.70;;
4766;SDS011;2397;53.576;9.746;2023-07-29T14:22:31;2.57;;;2.27;;
4766;SDS011;2397;53.576;9.746;2023-07-29T14:24:57;3.23;;;2.47;;
4766;SDS011;2397;53.576;9.746;2023-07-29T14:27:26;2.60;;;2.40;;
4766;SDS011;2397;53.576;9.746;2023-07-29T14:29:53;2.00;;;1.80;;
4766;SDS011;2397;53.576;9.746;2023-07-29T14:32:19;3.37;;;2.43;;
4766;SDS011;2397;53.576;9.746;2023-07-29T14:34:49;2.63;;;2.43;;
4766;SDS011;2397;53.576;9.746;2023-07-29T14:37:16;2.30;;;2.10;;
4766;SDS011;2397;53.576;9.746;2023-07-29T14:39:42;2.47;;;2.27;;
4766;SDS011;2397;53.576;9.746;2023-07-29T14:42:09;2.30;;;2.17;;
4766;SDS011;2397;53.576;9.746;2023-07-29T14:44:35;2.40;;;2.27;;
4766;SDS011;2397;53.576;9.746;2023-07-29T14:47:02;2.73;;;2.37;;
4766;SDS011;2397;53.576;9.746;2023-07-29T14:49:28;2.67;;;2.47;;
4766;SDS011;2397;53.576;9.746;2023-07-29T14:51:55;2.77;;;2.30;;
4766;SDS011;2397;53.576;9.746;2023-07-29T14:54:22;2.43;;;2.17;;
4766;SDS011;2397;53.576;9.746;2023-07-29T14:56:48;3.47;;;2.50;;
4766;SDS011;2397;53.576;9.746;2023-07-29T14:59:15;2.60;;;2.40;;
4766;SDS011;2397;53.576;9.746;2023-07-29T15:01:41;3.00;;;2.20;;
4766;SDS011;2397;53.576;9.746;2023-07-29T15:04:08;2.77;;;2.57;;
4766;SDS011;2397;53.576;9.746;2023-07-29T15:06:34;2.60;;;2.40;;
4766;SDS011;2397;53.576;9.746;2023-07-29T15:09:02;3.43;;;2.50;;
4766;SDS011;2397;53.576;9.746;2023-07-29T15:11:29;2.63;;;2.43;;
4766;SDS011;2397;53.576;9.746;2023-07-29T15:13:55;2.93;;;2.40;;
4766;SDS011;2397;53.576;9.746;2023-07-29T15:16:23;2.40;;;2.30;;
4766;SDS011;2397;53.576;9.746;2023-07-29T15:18:50;3.93;;;2.80;;
4766;SDS011;2397;53.576;9.746;2023-07-29T15:21:18;2.70;;;2.40;;
4766;SDS011;2397;53.576;9.746;2023-07-29T15:23:44;3.40;;;2.30;;
4766;SDS011;2397;53.576;9.746;2023-07-29T15:26:12;2.70;;;2.50;;